createdAt,value
2022-08-09T00:01:48.375Z,99.90
2022-08-09T00:04:33.823Z,99.90
2022-08-09T00:07:10.540Z,99.90
2022-08-09T00:09:41.959Z,99.90
2022-08-09T00:12:15.515Z,99.90
2022-08-09T00:14:54.469Z,99.90
2022-08-09T00:18:05.968Z,99.90
2022-08-09T00:20:15.156Z,99.90
2022-08-09T00:22:44.844Z,99.90
2022-08-09T00:25:15.661Z,99.90
2022-08-09T00:27:51.863Z,99.90
2022-08-09T00:30:25.569Z,99.90
2022-08-09T00:32:56.608Z,99.90
2022-08-09T00:35:26.580Z,99.90
2022-08-09T00:37:57.794Z,99.90
2022-08-09T00:40:30.356Z,99.90
2022-08-09T00:44:11.609Z,99.90
2022-08-09T00:45:53.740Z,99.90
2022-08-09T00:48:24.119Z,99.90
2022-08-09T00:50:54.399Z,99.90
2022-08-09T00:53:24.768Z,99.90
2022-08-09T00:56:04.437Z,99.90
2022-08-09T00:58:37.939Z,99.90
2022-08-09T01:01:15.843Z,99.90
2022-08-09T01:03:57.486Z,99.90
2022-08-09T01:06:53.465Z,99.90
2022-08-09T01:09:36.852Z,99.90
2022-08-09T01:12:11.488Z,99.90
2022-08-09T01:14:45.595Z,99.90
2022-08-09T01:17:26.234Z,99.90
2022-08-09T01:20:07.286Z,99.90
2022-08-09T01:22:55.288Z,99.90
2022-08-09T01:25:41.678Z,99.90
2022-08-09T01:28:15.234Z,99.90
2022-08-09T01:30:52.165Z,99.90
2022-08-09T01:33:28.385Z,99.90
2022-08-09T01:36:03.200Z,99.90
2022-08-09T01:38:38.488Z,99.90
2022-08-09T01:41:13.014Z,99.90
2022-08-09T01:43:52.262Z,99.90
2022-08-09T01:46:26.368Z,99.90
2022-08-09T01:48:56.747Z,99.90
2022-08-09T01:51:32.237Z,99.90
2022-08-09T01:54:05.536Z,99.90
2022-08-09T01:56:36.384Z,99.90
2022-08-09T01:59:16.796Z,99.90
2022-08-09T02:02:00.082Z,99.90
2022-08-09T02:04:31.348Z,99.90
2022-08-09T02:07:18.131Z,99.90
2022-08-09T02:10:06.892Z,99.90
2022-08-09T02:12:36.572Z,99.90
2022-08-09T02:15:15.427Z,99.90
2022-08-09T02:18:00.874Z,99.90
2022-08-09T02:20:39.686Z,99.90
2022-08-09T02:23:11.704Z,99.90
2022-08-09T02:25:52.769Z,99.90
2022-08-09T02:28:40.912Z,99.90
2022-08-09T02:31:19.952Z,99.90
2022-08-09T02:34:06.812Z,99.90
2022-08-09T02:36:44.181Z,99.90
2022-08-09T02:39:19.942Z,99.90
2022-08-09T02:42:06.804Z,99.90
2022-08-09T02:44:39.652Z,99.90
2022-08-09T02:47:12.872Z,99.90
2022-08-09T02:50:01.262Z,99.90
2022-08-09T02:52:37.693Z,99.90
2022-08-09T02:55:20.672Z,99.90
2022-08-09T02:58:00.260Z,99.90
2022-08-09T03:00:58.164Z,99.90
2022-08-09T03:04:12.970Z,99.90
2022-08-09T03:06:21.796Z,99.90
2022-08-09T03:08:52.719Z,99.90
2022-08-09T03:12:05.238Z,99.90
2022-08-09T03:14:12.282Z,99.90
2022-08-09T03:16:45.041Z,99.90
2022-08-09T03:19:58.854Z,99.90
2022-08-09T03:22:25.005Z,99.90
2022-08-09T03:25:26.888Z,99.90
2022-08-09T03:27:44.709Z,99.90
2022-08-09T03:30:29.733Z,99.90
2022-08-09T03:33:17.584Z,99.90
2022-08-09T03:36:13.143Z,99.90
2022-08-09T03:38:41.649Z,99.90
2022-08-09T03:41:15.530Z,99.90
2022-08-09T03:44:03.430Z,99.90
2022-08-09T03:46:37.423Z,99.90
2022-08-09T03:49:10.986Z,99.90
2022-08-09T03:51:59.086Z,99.90
2022-08-09T03:54:32.880Z,99.90
2022-08-09T03:57:12.121Z,99.90
2022-08-09T03:59:53.865Z,99.90
2022-08-09T04:02:27.360Z,99.90
2022-08-09T04:04:59.064Z,99.90
2022-08-09T04:07:33.930Z,99.90
2022-08-09T04:10:20.698Z,99.90
2022-08-09T04:13:09.476Z,99.90
2022-08-09T04:16:19.656Z,99.90
2022-08-09T04:18:29.496Z,99.90
2022-08-09T04:20:57.580Z,99.90
2022-08-09T04:23:27.104Z,99.90
2022-08-09T04:25:55.763Z,99.90
2022-08-09T04:28:33.647Z,99.90
2022-08-09T04:31:09.259Z,99.90
2022-08-09T04:33:51.617Z,99.90
2022-08-09T04:36:25.957Z,99.90
2022-08-09T04:38:56.587Z,99.90
2022-08-09T04:41:32.126Z,99.90
2022-08-09T04:44:06.762Z,99.90
2022-08-09T04:47:00.058Z,99.90
2022-08-09T04:49:47.722Z,99.90
2022-08-09T04:52:18.399Z,99.90
2022-08-09T04:54:52.508Z,99.90
2022-08-09T04:57:23.915Z,99.90
2022-08-09T04:59:52.819Z,99.90
2022-08-09T05:02:21.583Z,99.90
2022-08-09T05:04:55.602Z,99.90
2022-08-09T05:07:25.269Z,99.90
2022-08-09T05:10:01.593Z,99.90
2022-08-09T05:12:34.292Z,99.90
2022-08-09T05:15:11.545Z,99.90
2022-08-09T05:18:37.559Z,99.90
2022-08-09T05:20:44.897Z,99.90
2022-08-09T05:23:53.658Z,99.90
2022-08-09T05:26:02.488Z,99.90
2022-08-09T05:28:30.910Z,99.90
2022-08-09T05:30:58.846Z,99.90
2022-08-09T05:33:32.682Z,99.90
2022-08-09T05:36:01.796Z,99.90
2022-08-09T05:38:29.715Z,99.90
2022-08-09T05:40:59.458Z,99.90
2022-08-09T05:43:32.032Z,99.90
2022-08-09T05:46:01.731Z,99.90
2022-08-09T05:48:33.228Z,99.90
2022-08-09T05:51:42.560Z,99.90
2022-08-09T05:53:57.314Z,99.90
2022-08-09T05:56:27.193Z,99.90
2022-08-09T05:58:59.164Z,99.90
2022-08-09T06:01:34.111Z,99.90
2022-08-09T06:04:23.485Z,99.90
2022-08-09T06:06:51.975Z,99.90
2022-08-09T06:09:54.370Z,99.90
2022-08-09T06:12:11.833Z,99.90
2022-08-09T06:14:41.235Z,99.90
2022-08-09T06:17:10.363Z,99.90
2022-08-09T06:19:38.765Z,99.90
2022-08-09T06:22:14.854Z,99.90
2022-08-09T06:24:43.956Z,99.90
2022-08-09T06:27:11.957Z,99.90
2022-08-09T06:29:48.278Z,99.90
2022-08-09T06:32:58.735Z,99.90
2022-08-09T06:35:15.424Z,99.90
2022-08-09T06:37:53.153Z,99.90
2022-08-09T06:40:31.839Z,99.90
2022-08-09T06:43:02.192Z,99.90
2022-08-09T06:46:04.515Z,99.90
2022-08-09T06:48:26.260Z,99.90
2022-08-09T06:51:04.392Z,99.90
2022-08-09T06:53:38.371Z,99.90
2022-08-09T06:56:07.266Z,99.90
2022-08-09T07:00:47.692Z,99.90
2022-08-09T07:01:27.539Z,99.90
2022-08-09T07:04:04.411Z,99.90
2022-08-09T07:06:33.168Z,99.90
2022-08-09T07:09:02.754Z,99.90
2022-08-09T07:11:34.278Z,99.90
2022-08-09T07:14:26.612Z,99.90
2022-08-09T07:16:58.505Z,99.90
2022-08-09T07:19:27.335Z,99.90
2022-08-09T07:21:57.167Z,99.90
2022-08-09T07:24:32.425Z,99.90
2022-08-09T07:27:26.717Z,99.90
2022-08-09T07:29:59.879Z,99.90
2022-08-09T07:32:32.964Z,99.90
2022-08-09T07:35:10.598Z,99.90
2022-08-09T07:37:43.352Z,97.70
2022-08-09T07:40:17.128Z,98.70
2022-08-09T07:42:56.316Z,99.90
2022-08-09T07:45:39.662Z,99.90
2022-08-09T07:48:22.400Z,96.10
2022-08-09T07:51:09.801Z,97.50
2022-08-09T07:54:06.921Z,98.60
2022-08-09T07:56:45.006Z,98.60
2022-08-09T07:59:33.878Z,97.20
2022-08-09T08:02:09.445Z,98.30
2022-08-09T08:04:39.956Z,95.70
2022-08-09T08:07:57.459Z,96.80
2022-08-09T08:10:08.985Z,94.60
2022-08-09T08:12:43.109Z,95.90
2022-08-09T08:15:13.710Z,96.40
2022-08-09T08:17:53.476Z,95.00
2022-08-09T08:20:27.271Z,93.80
2022-08-09T08:23:03.578Z,91.70
2022-08-09T08:25:44.427Z,92.00
2022-08-09T08:28:15.518Z,92.00
2022-08-09T08:30:47.574Z,91.80
2022-08-09T08:33:23.709Z,92.00
2022-08-09T08:35:59.114Z,91.30
2022-08-09T08:38:29.443Z,87.80
2022-08-09T08:40:58.733Z,86.50
2022-08-09T08:43:27.726Z,88.10
2022-08-09T08:46:10.310Z,90.50
2022-08-09T08:48:51.064Z,89.90
2022-08-09T08:51:23.538Z,89.00
2022-08-09T08:54:03.947Z,90.90
2022-08-09T08:56:35.581Z,90.80
2022-08-09T08:59:18.717Z,90.50
2022-08-09T09:01:57.180Z,88.40
2022-08-09T09:04:41.324Z,86.20
2022-08-09T09:07:17.947Z,86.30
2022-08-09T09:09:59.404Z,86.50
2022-08-09T09:12:35.465Z,84.20
2022-08-09T09:15:06.274Z,86.20
2022-08-09T09:17:49.408Z,81.40
2022-08-09T09:20:21.942Z,83.00
2022-08-09T09:23:01.945Z,81.50
2022-08-09T09:26:01.105Z,79.50
2022-08-09T09:29:02.590Z,81.00
2022-08-09T09:32:06.934Z,75.30
2022-08-09T09:34:15.321Z,79.60
2022-08-09T09:36:53.031Z,80.70
2022-08-09T09:39:50.350Z,80.90
2022-08-09T09:42:26.395Z,75.90
2022-08-09T09:44:59.854Z,76.60
2022-08-09T09:47:32.462Z,76.10
2022-08-09T09:50:15.719Z,73.40
2022-08-09T09:52:57.371Z,74.50
2022-08-09T09:55:31.346Z,75.90
2022-08-09T09:58:15.917Z,77.30
2022-08-09T10:00:52.582Z,74.60
2022-08-09T10:03:43.450Z,77.00
2022-08-09T10:06:13.245Z,73.60
2022-08-09T10:08:43.199Z,74.90
2022-08-09T10:11:59.835Z,75.60
2022-08-09T10:14:30.301Z,76.10
2022-08-09T10:17:39.579Z,73.70
2022-08-09T10:19:53.101Z,76.60
2022-08-09T10:22:33.479Z,74.10
2022-08-09T10:25:12.345Z,77.00
2022-08-09T10:27:56.902Z,76.80
2022-08-09T10:32:13.649Z,75.40
2022-08-09T10:34:04.678Z,75.10
2022-08-09T10:36:09.761Z,76.40
2022-08-09T10:38:55.906Z,76.90
2022-08-09T10:41:28.195Z,78.40
2022-08-09T10:44:01.709Z,77.50
2022-08-09T10:47:01.006Z,75.90
2022-08-09T10:49:50.829Z,74.50
2022-08-09T10:52:42.961Z,76.60
2022-08-09T10:55:26.613Z,77.30
2022-08-09T10:57:59.857Z,77.40
2022-08-09T11:01:10.952Z,78.60
2022-08-09T11:03:49.718Z,79.50
2022-08-09T11:06:24.570Z,78.80
2022-08-09T11:08:59.583Z,79.40
2022-08-09T11:12:17.275Z,78.60
2022-08-09T11:14:49.136Z,76.40
2022-08-09T11:18:03.096Z,76.80
2022-08-09T11:20:49.807Z,77.60
2022-08-09T11:23:24.079Z,77.40
2022-08-09T11:26:00.377Z,79.90
2022-08-09T11:28:55.878Z,81.20
2022-08-09T11:31:52.728Z,81.70
2022-08-09T11:34:43.591Z,80.30
2022-08-09T11:37:28.015Z,79.60
2022-08-09T11:40:11.389Z,80.20
2022-08-09T11:42:47.050Z,78.00
2022-08-09T11:45:42.413Z,75.70
2022-08-09T11:48:26.070Z,78.30
2022-08-09T11:52:53.809Z,79.90
2022-08-09T11:54:14.420Z,79.90
2022-08-09T11:56:53.118Z,79.20
2022-08-09T11:59:30.254Z,79.60
2022-08-09T12:02:34.389Z,79.70
2022-08-09T12:04:57.953Z,81.10
2022-08-09T12:07:41.521Z,80.00
2022-08-09T12:10:14.469Z,81.90
2022-08-09T12:13:03.855Z,82.30
2022-08-09T12:15:52.804Z,82.40
2022-08-09T12:18:30.320Z,83.00
2022-08-09T12:21:04.183Z,82.90
2022-08-09T12:24:06.737Z,85.60
2022-08-09T12:29:00.232Z,85.10
2022-08-09T12:29:44.702Z,86.60
2022-08-09T12:32:27.437Z,86.50
2022-08-09T12:35:02.912Z,88.00
2022-08-09T12:37:50.740Z,89.00
2022-08-09T12:40:25.747Z,90.00
2022-08-09T12:42:54.657Z,90.20
2022-08-09T12:45:33.295Z,90.60
2022-08-09T12:48:03.605Z,90.30
2022-08-09T12:50:32.817Z,91.10
2022-08-09T12:53:08.841Z,90.90
2022-08-09T12:56:12.239Z,91.00
2022-08-09T12:58:42.751Z,91.00
2022-08-09T13:01:26.652Z,91.30
2022-08-09T13:04:01.902Z,91.30
2022-08-09T13:06:35.019Z,91.20
2022-08-09T13:09:08.972Z,90.60
2022-08-09T13:11:42.345Z,91.40
2022-08-09T13:14:41.192Z,90.90
2022-08-09T13:17:03.707Z,90.60
2022-08-09T13:20:06.899Z,90.30
2022-08-09T13:22:36.661Z,89.40
2022-08-09T13:25:14.272Z,89.70
2022-08-09T13:27:54.351Z,89.90
2022-08-09T13:31:11.168Z,89.90
2022-08-09T13:33:24.714Z,90.10
2022-08-09T13:36:37.645Z,89.70
2022-08-09T13:39:08.181Z,89.70
2022-08-09T13:42:00.703Z,90.10
2022-08-09T13:44:34.643Z,88.60
2022-08-09T13:47:26.819Z,87.40
2022-08-09T13:49:57.254Z,88.20
2022-08-09T13:52:29.906Z,88.30
2022-08-09T13:55:02.047Z,88.10
2022-08-09T13:57:39.735Z,89.30
2022-08-09T14:00:16.007Z,90.00
2022-08-09T14:03:16.884Z,89.70
2022-08-09T14:06:01.354Z,90.30
2022-08-09T14:08:26.934Z,89.90
2022-08-09T14:10:56.712Z,89.90
2022-08-09T14:14:15.339Z,90.50
2022-08-09T14:16:17.525Z,90.00
2022-08-09T14:18:50.357Z,89.90
2022-08-09T14:21:23.392Z,90.50
2022-08-09T14:23:56.656Z,89.80
2022-08-09T14:26:31.765Z,90.60
2022-08-09T14:29:03.317Z,89.90
2022-08-09T14:31:35.779Z,90.70
2022-08-09T14:34:27.373Z,90.30
2022-08-09T14:37:06.283Z,90.90
2022-08-09T14:39:45.260Z,91.50
2022-08-09T14:42:31.595Z,92.20
2022-08-09T14:46:39.777Z,92.90
2022-08-09T14:47:58.799Z,92.30
2022-08-09T14:50:32.320Z,92.10
2022-08-09T14:53:06.403Z,92.80
2022-08-09T14:55:42.030Z,92.90
2022-08-09T14:58:11.155Z,92.70
2022-08-09T15:00:42.287Z,92.70
2022-08-09T15:03:13.288Z,92.80
2022-08-09T15:05:52.322Z,92.70
2022-08-09T15:08:30.342Z,92.90
2022-08-09T15:11:00.817Z,93.30
2022-08-09T15:13:48.030Z,93.60
2022-08-09T15:16:18.529Z,93.70
2022-08-09T15:18:49.631Z,94.00
2022-08-09T15:21:57.687Z,94.20
2022-08-09T15:24:17.513Z,94.30
2022-08-09T15:26:53.270Z,94.80
2022-08-09T15:30:59.435Z,95.10
2022-08-09T15:32:29.903Z,95.00
2022-08-09T15:35:01.369Z,95.10
2022-08-09T15:37:56.033Z,94.90
2022-08-09T15:40:32.297Z,95.00
2022-08-09T15:43:02.894Z,95.60
2022-08-09T15:45:51.939Z,95.90
2022-08-09T15:48:28.971Z,96.00
2022-08-09T15:51:00.758Z,96.00
2022-08-09T15:54:04.360Z,96.20
2022-08-09T15:56:28.535Z,96.10
2022-08-09T15:58:57.425Z,96.30
2022-08-09T16:01:27.104Z,96.50
2022-08-09T16:04:02.540Z,96.40
2022-08-09T16:06:37.517Z,96.40
2022-08-09T16:09:06.178Z,96.40
2022-08-09T16:11:35.181Z,96.90
2022-08-09T16:14:07.767Z,96.90
2022-08-09T16:16:38.008Z,96.40
2022-08-09T16:19:07.879Z,96.80
2022-08-09T16:21:37.467Z,96.90
2022-08-09T16:24:20.144Z,96.90
2022-08-09T16:26:57.011Z,96.90
2022-08-09T16:29:37.995Z,97.30
2022-08-09T16:32:33.443Z,96.70
2022-08-09T16:35:03.617Z,97.10
2022-08-09T16:37:53.309Z,97.20
2022-08-09T16:40:39.781Z,97.20
2022-08-09T16:43:08.940Z,97.30
2022-08-09T16:45:44.251Z,97.30
2022-08-09T16:48:39.386Z,97.50
2022-08-09T16:51:08.319Z,97.90
2022-08-09T16:56:33.412Z,97.80
2022-08-09T16:59:06.500Z,98.30
2022-08-09T17:01:36.032Z,98.30
2022-08-09T17:04:05.414Z,99.00
2022-08-09T17:07:03.875Z,98.80
2022-08-09T17:09:45.539Z,99.70
2022-08-09T17:12:12.942Z,99.90
2022-08-09T17:14:48.068Z,99.90
2022-08-09T17:17:26.610Z,99.90
2022-08-09T17:20:28.603Z,99.90
2022-08-09T17:22:51.805Z,99.90
2022-08-09T17:25:26.911Z,99.90
2022-08-09T17:28:04.996Z,99.90
2022-08-09T17:30:34.433Z,99.90
2022-08-09T17:33:04.960Z,99.90
2022-08-09T17:35:41.089Z,99.90
2022-08-09T17:38:32.611Z,99.90
2022-08-09T17:41:01.020Z,99.90
2022-08-09T17:43:33.770Z,99.90
2022-08-09T17:46:06.600Z,99.90
2022-08-09T17:48:39.215Z,99.90
2022-08-09T17:51:18.364Z,99.90
2022-08-09T17:53:53.292Z,99.90
2022-08-09T17:56:35.718Z,99.90
2022-08-09T17:59:11.450Z,99.90
2022-08-09T18:02:06.281Z,99.90
2022-08-09T18:04:31.967Z,99.90
2022-08-09T18:07:04.442Z,99.90
2022-08-09T18:09:40.987Z,99.90
2022-08-09T18:12:15.120Z,99.90
2022-08-09T18:14:53.324Z,99.90
2022-08-09T18:17:27.302Z,99.90
2022-08-09T18:20:56.441Z,99.90
2022-08-09T18:23:04.818Z,99.90
2022-08-09T18:25:50.769Z,99.90
2022-08-09T18:30:38.672Z,99.90
2022-08-09T18:31:32.455Z,99.90
2022-08-09T18:34:08.105Z,99.90
2022-08-09T18:36:36.590Z,99.90
2022-08-09T18:39:06.284Z,99.90
2022-08-09T18:41:38.285Z,99.90
2022-08-09T18:44:22.975Z,99.90
2022-08-09T18:47:07.599Z,99.90
2022-08-09T18:49:43.120Z,99.90
2022-08-09T18:52:34.560Z,99.90
2022-08-09T18:55:13.891Z,99.90
2022-08-09T18:57:43.201Z,99.90
2022-08-09T19:00:20.543Z,99.90
2022-08-09T19:02:50.972Z,99.90
2022-08-09T19:05:28.283Z,99.90
2022-08-09T19:08:13.979Z,99.90
2022-08-09T19:10:44.452Z,99.90
2022-08-09T19:13:23.011Z,99.90
2022-08-09T19:16:12.880Z,99.90
2022-08-09T19:18:44.478Z,99.90
2022-08-09T19:21:14.541Z,99.90
2022-08-09T19:24:39.577Z,99.90
2022-08-09T19:26:34.736Z,99.90
2022-08-09T19:29:09.644Z,99.90
2022-08-09T19:31:51.431Z,99.90
2022-08-09T19:34:24.632Z,99.90
2022-08-09T19:36:56.000Z,99.90
2022-08-09T19:39:43.413Z,99.90
2022-08-09T19:42:20.011Z,99.90
2022-08-09T19:44:57.926Z,99.90
2022-08-09T19:47:27.396Z,99.90
2022-08-09T19:50:49.743Z,99.90
2022-08-09T19:52:57.938Z,99.90
2022-08-09T19:55:39.140Z,99.90
2022-08-09T19:58:17.030Z,99.90
2022-08-09T20:00:52.322Z,99.90
2022-08-09T20:04:11.034Z,99.90
2022-08-09T20:06:23.428Z,99.90
2022-08-09T20:08:55.203Z,99.90
2022-08-09T20:11:43.372Z,99.90
2022-08-09T20:14:17.794Z,99.90
2022-08-09T20:16:56.996Z,99.90
2022-08-09T20:19:48.750Z,99.90
2022-08-09T20:22:26.028Z,99.90
2022-08-09T20:25:02.454Z,99.90
2022-08-09T20:27:33.017Z,99.90
2022-08-09T20:30:05.353Z,99.90
2022-08-09T20:32:36.687Z,99.90
2022-08-09T20:35:11.538Z,99.90
2022-08-09T20:38:23.939Z,99.90
2022-08-09T20:40:30.660Z,99.90
2022-08-09T20:43:24.253Z,99.90
2022-08-09T20:46:34.138Z,99.90
2022-08-09T20:48:53.676Z,99.90
2022-08-09T20:51:26.564Z,99.90
2022-08-09T20:53:55.563Z,99.90
2022-08-09T20:56:34.744Z,99.90
2022-08-09T20:59:03.630Z,99.90
2022-08-09T21:01:51.028Z,99.90
2022-08-09T21:05:49.577Z,99.90
2022-08-09T21:07:30.063Z,99.90
2022-08-09T21:10:08.406Z,99.90
2022-08-09T21:12:38.893Z,99.90
2022-08-09T21:15:12.517Z,99.90
2022-08-09T21:18:23.353Z,99.90
2022-08-09T21:20:30.034Z,99.90
2022-08-09T21:23:00.777Z,99.90
2022-08-09T21:25:59.311Z,99.90
2022-08-09T21:28:33.526Z,99.90
2022-08-09T21:31:17.264Z,99.90
2022-08-09T21:33:52.405Z,99.90
2022-08-09T21:36:27.790Z,99.90
2022-08-09T21:39:00.276Z,99.90
2022-08-09T21:42:04.588Z,99.90
2022-08-09T21:44:33.679Z,99.90
2022-08-09T21:47:10.267Z,99.90
2022-08-09T21:49:43.081Z,99.90
2022-08-09T21:52:14.998Z,99.90
2022-08-09T21:54:59.352Z,99.90
2022-08-09T21:57:38.438Z,99.90
2022-08-09T22:00:25.379Z,99.90
2022-08-09T22:02:58.120Z,99.90
2022-08-09T22:05:36.791Z,99.90
2022-08-09T22:08:13.566Z,99.90
2022-08-09T22:11:05.271Z,99.90
2022-08-09T22:13:35.532Z,99.90
2022-08-09T22:16:07.629Z,99.90
2022-08-09T22:18:38.031Z,99.90
2022-08-09T22:21:09.758Z,99.90
2022-08-09T22:23:59.064Z,99.90
2022-08-09T22:26:35.562Z,99.90
2022-08-09T22:29:09.082Z,99.90
2022-08-09T22:31:50.408Z,99.90
2022-08-09T22:34:27.553Z,99.90
2022-08-09T22:36:56.081Z,99.90
2022-08-09T22:39:55.863Z,99.90
2022-08-09T22:42:20.638Z,99.90
2022-08-09T22:45:00.099Z,99.90
2022-08-09T22:48:16.877Z,99.90
2022-08-09T22:50:32.872Z,99.90
2022-08-09T22:53:03.749Z,99.90
2022-08-09T22:56:06.483Z,99.90
2022-08-09T22:58:32.307Z,99.90
2022-08-09T23:01:02.430Z,99.90
2022-08-09T23:04:02.836Z,99.90
2022-08-09T23:06:35.093Z,99.90
2022-08-09T23:09:05.406Z,99.90
2022-08-09T23:11:33.622Z,99.90
2022-08-09T23:14:10.273Z,99.90
2022-08-09T23:16:45.576Z,99.90
2022-08-09T23:19:14.147Z,99.90
2022-08-09T23:21:44.744Z,99.90
2022-08-09T23:24:12.898Z,99.90
2022-08-09T23:26:41.785Z,99.90
2022-08-09T23:29:13.892Z,99.90
2022-08-09T23:31:42.738Z,99.90
2022-08-09T23:34:10.697Z,99.90
2022-08-09T23:36:39.915Z,99.90
2022-08-09T23:39:10.804Z,99.90
2022-08-09T23:41:41.642Z,99.90
2022-08-09T23:44:13.371Z,99.90
2022-08-09T23:46:42.928Z,99.90
2022-08-09T23:49:11.422Z,99.90
2022-08-09T23:51:39.800Z,99.90
2022-08-09T23:54:08.118Z,99.90
2022-08-09T23:56:52.833Z,99.90
2022-08-09T23:59:25.368Z,99.90
